Time;durP1;ratioP1;P1;durP2;ratioP2;P2;SDS_P1;SDS_P2;PMS_P1;PMS_P2;Temp;Humidity;BMP_temperature;BMP_pressure;BME280_temperature;BME280_humidity;BME280_pressure;Samples;Min_cycle;Max_cycle;Signal;HPM_P1;HPM_P2
2022/08/23 00:01:24;;;;;;;3.05;1.73;;;;;;;;;;4949478;28;20799;-64
2022/08/23 00:03:50;;;;;;;3.97;2.30;;;;;;;;;;4950466;28;20421;-61
2022/08/23 00:06:16;;;;;;;3.55;1.88;;;;;;;;;;4950471;28;20370;-61
2022/08/23 00:08:42;;;;;;;5.80;1.80;;;;;;;;;;4949545;28;20388;-62
2022/08/23 00:11:34;;;;;;;2.35;1.55;;;;;;;;;;4949404;28;20368;-61
2022/08/23 00:14:04;;;;;;;2.95;1.98;;;;;;;;;;4945881;28;20108;-61
2022/08/23 00:16:29;;;;;;;2.70;1.65;;;;;;;;;;4949263;28;20567;-61
2022/08/23 00:18:54;;;;;;;3.45;1.77;;;;;;;;;;4949163;28;20453;-61
2022/08/23 00:21:20;;;;;;;1.77;1.55;;;;;;;;;;4949473;28;20052;-61
2022/08/23 00:23:46;;;;;;;2.10;1.60;;;;;;;;;;4949492;28;20496;-61
2022/08/23 00:26:11;;;;;;;3.60;1.67;;;;;;;;;;4949121;28;20369;-61
2022/08/23 00:28:37;;;;;;;2.28;1.63;;;;;;;;;;4948968;28;20452;-61
2022/08/23 00:31:02;;;;;;;2.78;1.98;;;;;;;;;;4951159;28;20494;-61
2022/08/23 00:33:28;;;;;;;2.67;1.67;;;;;;;;;;4950329;28;20329;-61
2022/08/23 00:35:53;;;;;;;3.17;2.10;;;;;;;;;;4948820;28;20034;-61
2022/08/23 00:38:18;;;;;;;3.00;1.42;;;;;;;;;;4931134;28;20441;-62
2022/08/23 00:40:52;;;;;;;2.50;1.60;;;;;;;;;;4948712;28;20026;-61
2022/08/23 00:49:39;;;;;;;3.08;1.67;;;;;;;;;;4946197;28;20045;-61
2022/08/23 00:52:07;;;;;;;2.53;1.55;;;;;;;;;;4946129;28;20065;-62
2022/08/23 00:54:34;;;;;;;2.83;1.40;;;;;;;;;;4946054;28;20479;-61
2022/08/23 00:57:04;;;;;;;2.38;1.48;;;;;;;;;;4967701;28;20722;-61
2022/08/23 00:59:30;;;;;;;3.85;1.77;;;;;;;;;;4967974;28;20033;-61
2022/08/23 01:01:56;;;;;;;3.22;1.67;;;;;;;;;;4961102;28;20445;-61
2022/08/23 01:04:23;;;;;;;2.65;1.50;;;;;;;;;;4962267;28;20340;-61
2022/08/23 01:06:54;;;;;;;2.35;1.50;;;;;;;;;;4967966;28;20410;-61
2022/08/23 01:09:20;;;;;;;1.88;1.20;;;;;;;;;;4966472;28;20030;-62
2022/08/23 01:12:07;;;;;;;3.03;1.23;;;;;;;;;;4967111;28;20395;-61
2022/08/23 01:14:53;;;;;;;2.83;1.55;;;;;;;;;;4969832;28;20332;-61
2022/08/23 01:17:25;;;;;;;2.15;1.40;;;;;;;;;;4967941;28;20428;-61
2022/08/23 01:19:50;;;;;;;1.77;1.42;;;;;;;;;;4967774;28;20437;-62
2022/08/23 01:22:36;;;;;;;2.83;1.70;;;;;;;;;;4967734;28;20506;-61
2022/08/23 01:25:04;;;;;;;3.17;1.55;;;;;;;;;;4966118;28;20510;-62
2022/08/23 01:27:30;;;;;;;2.50;1.63;;;;;;;;;;4967280;28;20029;-61
2022/08/23 01:29:55;;;;;;;3.60;1.50;;;;;;;;;;4967753;28;20436;-61
2022/08/23 01:32:21;;;;;;;2.55;1.67;;;;;;;;;;4969236;28;20464;-61
2022/08/23 01:34:46;;;;;;;1.88;1.42;;;;;;;;;;4969335;28;20420;-61
2022/08/23 01:37:12;;;;;;;2.45;1.60;;;;;;;;;;4967670;28;20392;-61
2022/08/23 01:39:37;;;;;;;2.83;1.23;;;;;;;;;;4966500;28;20104;-61
2022/08/23 01:42:03;;;;;;;2.25;1.42;;;;;;;;;;4969960;28;20428;-62
2022/08/23 01:44:28;;;;;;;5.57;2.25;;;;;;;;;;4968276;28;20052;-61
2022/08/23 01:46:54;;;;;;;3.60;1.40;;;;;;;;;;4949555;28;20065;-61
2022/08/23 01:49:19;;;;;;;3.20;1.25;;;;;;;;;;4952055;28;20096;-61
2022/08/23 01:51:44;;;;;;;2.35;1.60;;;;;;;;;;4951829;28;20388;-61
2022/08/23 01:54:11;;;;;;;2.30;1.33;;;;;;;;;;4951744;28;20034;-61
2022/08/23 01:56:37;;;;;;;2.08;1.45;;;;;;;;;;4951792;28;20346;-61
2022/08/23 01:59:03;;;;;;;4.25;1.50;;;;;;;;;;4952195;28;20361;-61
2022/08/23 02:01:28;;;;;;;2.00;1.65;;;;;;;;;;4952593;28;20497;-61
2022/08/23 02:03:54;;;;;;;5.85;1.48;;;;;;;;;;4951581;28;20456;-61
2022/08/23 02:06:20;;;;;;;1.50;1.30;;;;;;;;;;4951619;28;20348;-61
2022/08/23 02:09:01;;;;;;;2.70;1.40;;;;;;;;;;4952550;28;20386;-62
2022/08/23 02:11:30;;;;;;;1.92;1.50;;;;;;;;;;4951411;28;20344;-61
2022/08/23 02:13:57;;;;;;;2.13;1.25;;;;;;;;;;4951543;28;20495;-61
2022/08/23 02:16:24;;;;;;;2.83;1.63;;;;;;;;;;4953097;28;20423;-61
2022/08/23 02:18:50;;;;;;;3.50;1.33;;;;;;;;;;4951094;28;20172;-61
2022/08/23 02:21:16;;;;;;;2.25;1.40;;;;;;;;;;4951239;28;20452;-61
2022/08/23 02:23:41;;;;;;;3.03;1.50;;;;;;;;;;4951314;28;20432;-62
2022/08/23 02:26:07;;;;;;;2.83;1.58;;;;;;;;;;4952424;28;20030;-61
2022/08/23 02:28:32;;;;;;;2.80;1.48;;;;;;;;;;4951288;28;20368;-61
2022/08/23 02:30:57;;;;;;;3.50;2.15;;;;;;;;;;4953199;28;20446;-61
2022/08/23 02:33:23;;;;;;;3.45;1.42;;;;;;;;;;4951162;28;20444;-61
2022/08/23 02:35:48;;;;;;;2.55;1.58;;;;;;;;;;4949870;28;20026;-61
2022/08/23 02:38:14;;;;;;;2.35;1.45;;;;;;;;;;4950923;28;20397;-61
2022/08/23 02:40:40;;;;;;;2.20;1.70;;;;;;;;;;4950931;28;20427;-61
2022/08/23 02:43:06;;;;;;;4.63;1.80;;;;;;;;;;4951211;28;20353;-61
2022/08/23 02:45:31;;;;;;;5.00;1.73;;;;;;;;;;4950627;28;20342;-61
2022/08/23 02:47:57;;;;;;;2.67;1.60;;;;;;;;;;4950570;28;20358;-61
2022/08/23 02:50:23;;;;;;;2.58;1.63;;;;;;;;;;4950863;28;20364;-61
2022/08/23 02:52:49;;;;;;;2.58;1.60;;;;;;;;;;4950974;28;20132;-61
2022/08/23 02:55:15;;;;;;;2.03;1.42;;;;;;;;;;4950728;28;20025;-62
2022/08/23 02:57:40;;;;;;;3.20;1.58;;;;;;;;;;4950561;28;20344;-61
2022/08/23 03:00:08;;;;;;;5.57;2.28;;;;;;;;;;4950673;28;20065;-62
2022/08/23 03:02:35;;;;;;;3.10;1.65;;;;;;;;;;4951166;28;20468;-65
2022/08/23 03:05:01;;;;;;;3.50;1.17;;;;;;;;;;4952552;28;20579;-61
2022/08/23 03:07:26;;;;;;;5.90;1.73;;;;;;;;;;4950395;28;20456;-61
2022/08/23 03:09:51;;;;;;;8.80;2.00;;;;;;;;;;4951126;28;20052;-61
2022/08/23 03:12:17;;;;;;;3.83;2.25;;;;;;;;;;4950368;28;20337;-62
2022/08/23 03:14:42;;;;;;;3.08;2.28;;;;;;;;;;4950919;28;20385;-61
2022/08/23 03:17:08;;;;;;;5.03;2.15;;;;;;;;;;4950632;28;20437;-61
2022/08/23 03:19:34;;;;;;;7.55;2.75;;;;;;;;;;4950365;28;20464;-61
2022/08/23 03:21:59;;;;;;;2.58;1.70;;;;;;;;;;4950683;28;20439;-61
2022/08/23 03:24:25;;;;;;;8.95;2.15;;;;;;;;;;4950364;28;20460;-61
2022/08/23 03:26:50;;;;;;;4.57;1.80;;;;;;;;;;4950304;28;20452;-61
2022/08/23 03:29:16;;;;;;;3.45;2.03;;;;;;;;;;4932407;28;20460;-62
2022/08/23 03:31:42;;;;;;;2.58;1.75;;;;;;;;;;4950466;28;20025;-61
2022/08/23 03:34:07;;;;;;;3.00;1.70;;;;;;;;;;4949970;28;20095;-61
2022/08/23 03:36:33;;;;;;;3.35;1.90;;;;;;;;;;4949977;28;20456;-61
2022/08/23 03:38:59;;;;;;;2.33;1.83;;;;;;;;;;4949816;28;20034;-61
2022/08/23 03:41:25;;;;;;;3.55;2.03;;;;;;;;;;4950201;28;20030;-61
2022/08/23 03:43:51;;;;;;;4.45;1.98;;;;;;;;;;4950001;28;20044;-61
2022/08/23 03:46:23;;;;;;;3.13;2.05;;;;;;;;;;4949876;28;20523;-61
2022/08/23 03:48:53;;;;;;;3.22;1.80;;;;;;;;;;4949571;28;20176;-62
2022/08/23 03:51:19;;;;;;;6.55;2.00;;;;;;;;;;4949871;28;20348;-61
2022/08/23 03:53:46;;;;;;;3.03;2.00;;;;;;;;;;4951098;28;20026;-61
2022/08/23 03:56:20;;;;;;;2.85;1.83;;;;;;;;;;4949692;28;20448;-62
2022/08/23 03:58:45;;;;;;;2.72;1.73;;;;;;;;;;4949503;28;20467;-61
2022/08/23 04:01:11;;;;;;;2.28;1.70;;;;;;;;;;4950005;28;20429;-61
2022/08/23 04:03:36;;;;;;;2.97;1.70;;;;;;;;;;4949804;28;20069;-62
2022/08/23 04:06:01;;;;;;;2.85;2.15;;;;;;;;;;4949998;28;20411;-61
2022/08/23 04:08:27;;;;;;;3.78;1.88;;;;;;;;;;4949554;28;20345;-61
2022/08/23 04:10:52;;;;;;;5.50;2.65;;;;;;;;;;4948711;28;20422;-61
2022/08/23 04:13:17;;;;;;;4.80;1.90;;;;;;;;;;4949299;28;20346;-61
2022/08/23 04:15:43;;;;;;;4.75;2.17;;;;;;;;;;4949294;28;20448;-62
2022/08/23 04:18:08;;;;;;;3.60;2.10;;;;;;;;;;4949359;28;20345;-61
2022/08/23 04:20:33;;;;;;;4.18;2.10;;;;;;;;;;4949581;28;20380;-62
2022/08/23 04:22:59;;;;;;;4.45;2.15;;;;;;;;;;4949186;28;20472;-61
2022/08/23 04:25:25;;;;;;;4.63;2.17;;;;;;;;;;4951237;28;20405;-61
2022/08/23 04:27:50;;;;;;;2.47;1.90;;;;;;;;;;4950467;28;20441;-62
2022/08/23 04:30:18;;;;;;;3.17;1.88;;;;;;;;;;4949344;28;20033;-61
2022/08/23 04:32:44;;;;;;;2.72;1.77;;;;;;;;;;4949259;28;20112;-61
2022/08/23 04:35:10;;;;;;;3.17;2.35;;;;;;;;;;4948949;28;20030;-61
2022/08/23 04:37:36;;;;;;;3.47;1.80;;;;;;;;;;4949633;28;20109;-62
2022/08/23 04:42:46;;;;;;;1.90;1.70;;;;;;;;;;4949941;28;20064;-61
2022/08/23 04:45:12;;;;;;;2.75;1.73;;;;;;;;;;4949977;28;20469;-61
2022/08/23 04:47:40;;;;;;;5.43;2.03;;;;;;;;;;4948575;28;20483;-61
2022/08/23 04:50:07;;;;;;;2.35;1.50;;;;;;;;;;4948974;28;20513;-61
2022/08/23 04:52:33;;;;;;;3.75;1.90;;;;;;;;;;4941708;28;20475;-61
2022/08/23 04:54:58;;;;;;;2.53;1.90;;;;;;;;;;4968157;28;20344;-61
2022/08/23 04:57:25;;;;;;;2.80;2.20;;;;;;;;;;4970220;28;20337;-61
2022/08/23 04:59:50;;;;;;;4.40;2.30;;;;;;;;;;4968235;28;20441;-61
2022/08/23 05:02:15;;;;;;;3.20;1.52;;;;;;;;;;4969670;28;20471;-61
2022/08/23 05:04:41;;;;;;;2.80;2.28;;;;;;;;;;4968274;28;20025;-61
2022/08/23 05:07:06;;;;;;;5.95;2.03;;;;;;;;;;4968366;28;20051;-61
2022/08/23 05:09:32;;;;;;;2.55;2.00;;;;;;;;;;4968225;28;20432;-61
2022/08/23 05:11:57;;;;;;;3.53;1.90;;;;;;;;;;4968164;28;20423;-61
2022/08/23 05:14:23;;;;;;;3.13;2.20;;;;;;;;;;4968371;28;20388;-61
2022/08/23 05:16:48;;;;;;;2.25;1.70;;;;;;;;;;4968931;28;20440;-61
2022/08/23 05:19:13;;;;;;;2.72;2.13;;;;;;;;;;4968738;28;20048;-61
2022/08/23 05:21:39;;;;;;;3.97;2.17;;;;;;;;;;4969089;28;20406;-61
2022/08/23 05:24:04;;;;;;;3.42;2.05;;;;;;;;;;4967801;28;20466;-61
2022/08/23 05:26:30;;;;;;;3.20;2.25;;;;;;;;;;4967996;28;20519;-61
2022/08/23 05:28:55;;;;;;;3.35;2.10;;;;;;;;;;4968012;28;20290;-61
2022/08/23 05:31:23;;;;;;;4.13;2.58;;;;;;;;;;4968170;28;20432;-61
2022/08/23 05:33:48;;;;;;;2.92;2.10;;;;;;;;;;4968041;28;20550;-61
2022/08/23 05:36:16;;;;;;;2.92;1.98;;;;;;;;;;4967983;28;20563;-61
2022/08/23 05:38:42;;;;;;;5.88;2.55;;;;;;;;;;4967648;28;20485;-64
2022/08/23 05:41:08;;;;;;;3.15;2.17;;;;;;;;;;4968037;28;20144;-61
2022/08/23 05:43:34;;;;;;;2.88;1.83;;;;;;;;;;4968076;28;20309;-61
2022/08/23 05:46:16;;;;;;;2.97;2.08;;;;;;;;;;4978619;28;20552;-61
2022/08/23 05:48:45;;;;;;;3.50;2.38;;;;;;;;;;4988637;28;20348;-61
2022/08/23 05:51:19;;;;;;;3.67;2.10;;;;;;;;;;4987551;28;20589;-60
2022/08/23 05:53:45;;;;;;;5.65;2.40;;;;;;;;;;4988501;28;20317;-62
2022/08/23 05:56:19;;;;;;;6.78;2.63;;;;;;;;;;4989609;28;20451;-61
2022/08/23 05:58:45;;;;;;;4.88;2.75;;;;;;;;;;4987538;28;20116;-61
2022/08/23 06:01:12;;;;;;;3.45;2.55;;;;;;;;;;4987756;28;20025;-61
2022/08/23 06:03:38;;;;;;;7.05;2.88;;;;;;;;;;4989287;28;20371;-61
2022/08/23 06:06:04;;;;;;;5.45;3.00;;;;;;;;;;4988672;28;20328;-60
2022/08/23 06:08:29;;;;;;;3.95;2.58;;;;;;;;;;4985864;28;20111;-61
2022/08/23 06:11:02;;;;;;;6.53;3.03;;;;;;;;;;4988034;28;20359;-61
2022/08/23 06:13:27;;;;;;;8.60;2.40;;;;;;;;;;4988057;28;20331;-61
2022/08/23 06:15:53;;;;;;;5.25;2.70;;;;;;;;;;4987377;28;20285;-60
2022/08/23 06:18:19;;;;;;;6.00;3.10;;;;;;;;;;4989364;28;20462;-61
2022/08/23 06:20:45;;;;;;;5.90;3.15;;;;;;;;;;4987119;28;20443;-60
2022/08/23 06:23:10;;;;;;;7.70;3.63;;;;;;;;;;4987209;28;20344;-61
2022/08/23 06:25:39;;;;;;;6.82;3.33;;;;;;;;;;4987039;28;20075;-61
2022/08/23 06:28:04;;;;;;;;;;;;;;;;;;4987580;28;20029;-61
2022/08/23 06:30:30;;;;;;;5.57;2.90;;;;;;;;;;4987944;28;20391;-61
2022/08/23 06:32:55;;;;;;;11.25;3.67;;;;;;;;;;4987111;28;20446;-60
2022/08/23 06:35:20;;;;;;;7.13;3.08;;;;;;;;;;4992935;28;20327;-61
2022/08/23 06:37:46;;;;;;;7.78;3.35;;;;;;;;;;4990704;28;20060;-60
2022/08/23 06:40:12;;;;;;;7.55;3.15;;;;;;;;;;4990557;28;20051;-61
2022/08/23 06:42:37;;;;;;;6.65;3.25;;;;;;;;;;4990390;28;20056;-60
2022/08/23 06:45:03;;;;;;;8.75;3.95;;;;;;;;;;4990016;28;20432;-60
2022/08/23 06:47:29;;;;;;;9.05;3.92;;;;;;;;;;4990578;28;20036;-60
2022/08/23 06:49:54;;;;;;;7.18;3.67;;;;;;;;;;4993815;28;20441;-60
2022/08/23 06:52:19;;;;;;;12.07;5.00;;;;;;;;;;4990208;28;20372;-60
2022/08/23 06:54:45;;;;;;;10.18;4.43;;;;;;;;;;4659321;28;10001934;-60
2022/08/23 06:57:12;;;;;;;6.38;3.63;;;;;;;;;;4990616;28;20029;-60
2022/08/23 06:59:37;;;;;;;8.02;4.28;;;;;;;;;;4989864;28;20486;-61
2022/08/23 07:02:05;;;;;;;12.27;4.35;;;;;;;;;;4990117;28;20388;-60
2022/08/23 07:04:37;;;;;;;6.03;3.63;;;;;;;;;;4990802;28;20434;-61
2022/08/23 07:07:03;;;;;;;13.65;4.85;;;;;;;;;;4990501;28;20025;-60
2022/08/23 07:09:30;;;;;;;13.85;4.25;;;;;;;;;;4990395;28;20439;-60
2022/08/23 07:11:56;;;;;;;10.85;4.47;;;;;;;;;;4989799;28;20436;-60
2022/08/23 07:14:23;;;;;;;13.30;5.63;;;;;;;;;;4990018;28;20060;-60
2022/08/23 07:16:53;;;;;;;11.98;4.15;;;;;;;;;;4988165;28;20360;-60
2022/08/23 07:19:21;;;;;;;9.70;3.95;;;;;;;;;;4989923;28;20518;-60
2022/08/23 07:21:47;;;;;;;8.55;4.68;;;;;;;;;;4989727;28;20432;-61
2022/08/23 07:24:14;;;;;;;13.70;5.75;;;;;;;;;;4989718;28;20457;-60
2022/08/23 07:26:40;;;;;;;10.10;4.65;;;;;;;;;;4989603;28;20470;-60
2022/08/23 07:29:08;;;;;;;10.00;5.10;;;;;;;;;;4989697;28;20413;-61
2022/08/23 07:31:37;;;;;;;8.10;4.10;;;;;;;;;;4990006;28;20300;-61
2022/08/23 07:34:04;;;;;;;10.18;4.60;;;;;;;;;;4989533;28;20475;-61
2022/08/23 07:36:30;;;;;;;11.77;5.13;;;;;;;;;;4990100;28;20476;-60
2022/08/23 07:38:56;;;;;;;8.13;4.13;;;;;;;;;;4990958;28;20394;-60
2022/08/23 07:41:28;;;;;;;9.85;4.50;;;;;;;;;;4990304;28;20432;-60
2022/08/23 07:43:56;;;;;;;9.80;4.63;;;;;;;;;;4989357;28;20411;-60
2022/08/23 07:46:22;;;;;;;12.52;4.57;;;;;;;;;;4988481;28;20072;-60
2022/08/23 07:48:48;;;;;;;11.23;5.07;;;;;;;;;;4989265;28;20131;-60
2022/08/23 07:51:13;;;;;;;8.52;5.03;;;;;;;;;;4989584;28;20432;-60
2022/08/23 07:53:39;;;;;;;9.57;4.60;;;;;;;;;;4989192;28;20154;-60
2022/08/23 07:56:07;;;;;;;8.07;4.63;;;;;;;;;;4989248;28;20455;-61
2022/08/23 07:58:32;;;;;;;8.97;4.27;;;;;;;;;;4989297;28;20451;-62
2022/08/23 08:01:10;;;;;;;8.90;4.65;;;;;;;;;;4989544;28;20458;-60
2022/08/23 08:03:36;;;;;;;7.03;3.92;;;;;;;;;;4989081;28;20340;-60
2022/08/23 08:06:07;;;;;;;8.18;3.50;;;;;;;;;;4989457;28;20363;-60
2022/08/23 08:08:32;;;;;;;8.52;4.05;;;;;;;;;;4988774;28;20339;-61
2022/08/23 08:10:58;;;;;;;6.13;2.97;;;;;;;;;;4987474;28;20353;-60
2022/08/23 08:13:23;;;;;;;3.60;2.40;;;;;;;;;;4990587;28;20497;-60
2022/08/23 08:15:49;;;;;;;6.75;3.45;;;;;;;;;;4988695;28;20343;-60
2022/08/23 08:18:14;;;;;;;6.00;3.78;;;;;;;;;;4988670;28;20459;-60
2022/08/23 08:20:42;;;;;;;4.47;3.00;;;;;;;;;;4988937;28;20037;-60
2022/08/23 08:23:08;;;;;;;6.55;2.95;;;;;;;;;;4988578;28;20339;-60
2022/08/23 08:25:33;;;;;;;6.20;3.80;;;;;;;;;;4988889;28;20024;-60
2022/08/23 08:27:59;;;;;;;9.63;4.25;;;;;;;;;;4989942;28;20397;-61
2022/08/23 08:30:24;;;;;;;7.68;4.15;;;;;;;;;;4988854;28;20126;-60
2022/08/23 08:32:50;;;;;;;5.70;3.60;;;;;;;;;;4988708;28;20404;-61
2022/08/23 08:35:15;;;;;;;6.40;3.72;;;;;;;;;;4989755;28;20025;-60
2022/08/23 08:37:41;;;;;;;11.25;4.40;;;;;;;;;;4988266;28;20501;-60
2022/08/23 08:40:07;;;;;;;7.05;2.80;;;;;;;;;;4990285;28;20332;-60
2022/08/23 08:42:44;;;;;;;6.78;4.15;;;;;;;;;;4989214;28;20423;-61
2022/08/23 08:45:23;;;;;;;8.37;4.97;;;;;;;;;;4988511;28;20355;-60
2022/08/23 08:47:50;;;;;;;;;;;;;;;;;;4989364;28;20746;-60
2022/08/23 08:50:47;;;;;;;8.25;4.45;;;;;;;;;;4986762;28;19917;-60
2022/08/23 08:53:23;;;;;;;7.82;4.00;;;;;;;;;;4971778;28;20110;-60
2022/08/23 08:55:51;;;;;;;9.80;5.00;;;;;;;;;;4988613;28;20413;-60
2022/08/23 08:58:41;;;;;;;9.60;3.75;;;;;;;;;;4986572;28;20696;-60
2022/08/23 09:01:07;;;;;;;11.27;4.45;;;;;;;;;;4987868;28;20056;-60
2022/08/23 09:03:34;;;;;;;8.50;5.57;;;;;;;;;;4987727;28;20029;-61
2022/08/23 09:06:24;;;;;;;13.80;7.05;;;;;;;;;;4986490;28;20379;-63
2022/08/23 09:08:59;;;;;;;16.73;9.18;;;;;;;;;;4986271;28;20394;-64
2022/08/23 09:11:27;;;;;;;21.67;9.30;;;;;;;;;;4989349;28;20364;-65
2022/08/23 09:14:16;;;;;;;15.45;8.27;;;;;;;;;;4986237;28;20440;-64
2022/08/23 09:16:57;;;;;;;18.30;8.95;;;;;;;;;;4986621;28;20428;-64
2022/08/23 09:19:25;;;;;;;18.15;8.80;;;;;;;;;;4989468;28;20463;-64
2022/08/23 09:22:22;;;;;;;22.85;10.48;;;;;;;;;;4997230;28;20424;-64
2022/08/23 09:24:48;;;;;;;28.45;9.68;;;;;;;;;;4985416;28;20385;-64
2022/08/23 09:27:13;;;;;;;14.25;7.18;;;;;;;;;;4988098;28;20021;-64
2022/08/23 09:29:51;;;;;;;18.13;8.95;;;;;;;;;;4987849;28;20154;-64
2022/08/23 09:32:37;;;;;;;18.13;8.23;;;;;;;;;;4988043;28;20033;-63
2022/08/23 09:35:11;;;;;;;10.77;6.45;;;;;;;;;;4985983;28;20037;-63
2022/08/23 09:37:48;;;;;;;11.98;6.85;;;;;;;;;;4988436;28;20025;-63
2022/08/23 09:40:27;;;;;;;12.18;6.13;;;;;;;;;;4988144;28;20371;-64
2022/08/23 09:43:26;;;;;;;15.52;8.50;;;;;;;;;;4987489;28;20436;-64
2022/08/23 09:45:51;;;;;;;10.27;5.60;;;;;;;;;;4944010;28;20521;-64
2022/08/23 09:48:38;;;;;;;13.55;6.90;;;;;;;;;;4987515;28;20471;-64
2022/08/23 09:51:16;;;;;;;9.82;5.75;;;;;;;;;;4988649;28;20443;-64
2022/08/23 09:53:49;;;;;;;12.48;5.80;;;;;;;;;;4986183;28;20317;-63
2022/08/23 09:56:18;;;;;;;8.40;5.55;;;;;;;;;;4988271;28;20098;-64
2022/08/23 09:58:45;;;;;;;10.77;5.53;;;;;;;;;;4986231;28;20456;-64
2022/08/23 10:01:24;;;;;;;10.48;5.75;;;;;;;;;;4986343;28;20028;-63
2022/08/23 10:04:15;;;;;;;8.20;5.47;;;;;;;;;;4986692;28;20502;-64
2022/08/23 10:06:42;;;;;;;13.25;5.32;;;;;;;;;;4987740;28;20391;-63
2022/08/23 10:09:30;;;;;;;10.70;5.82;;;;;;;;;;4989260;28;20395;-63
2022/08/23 10:11:58;;;;;;;13.02;7.05;;;;;;;;;;4991146;28;20325;-63
2022/08/23 10:14:24;;;;;;;10.70;5.80;;;;;;;;;;4991488;28;20458;-63
2022/08/23 10:16:52;;;;;;;10.68;5.50;;;;;;;;;;4991160;28;20467;-63
2022/08/23 10:19:39;;;;;;;11.85;5.90;;;;;;;;;;4993347;28;20446;-63
2022/08/23 10:22:16;;;;;;;8.43;5.53;;;;;;;;;;4992082;28;20375;-63
2022/08/23 10:24:46;;;;;;;10.82;6.75;;;;;;;;;;4991496;28;20482;-63
2022/08/23 10:30:13;;;;;;;15.00;5.72;;;;;;;;;;4991955;28;20482;-62
2022/08/23 10:33:00;;;;;;;8.77;5.80;;;;;;;;;;4990156;28;20017;-63
2022/08/23 10:36:03;;;;;;;8.85;5.95;;;;;;;;;;4989290;28;20094;-62
2022/08/23 10:38:37;;;;;;;8.90;5.63;;;;;;;;;;4991970;28;20525;-63
2022/08/23 10:41:25;;;;;;;8.30;5.40;;;;;;;;;;4992569;28;20466;-63
2022/08/23 10:44:11;;;;;;;11.23;5.23;;;;;;;;;;4991310;28;20352;-62
2022/08/23 10:46:42;;;;;;;11.50;6.30;;;;;;;;;;4990811;28;21725;-62
2022/08/23 10:49:10;;;;;;;8.73;5.70;;;;;;;;;;4991755;28;20183;-62
2022/08/23 10:51:39;;;;;;;9.65;5.68;;;;;;;;;;4989622;28;20355;-62
2022/08/23 10:54:07;;;;;;;;;;;;;;;;;;4991878;28;20033;-62
2022/08/23 10:56:34;;;;;;;8.45;5.65;;;;;;;;;;4990437;28;20256;-62
2022/08/23 10:59:06;;;;;;;9.80;6.15;;;;;;;;;;4990893;28;20059;-62
2022/08/23 11:01:47;;;;;;;9.40;5.38;;;;;;;;;;4989105;28;20439;-62
2022/08/23 11:04:33;;;;;;;9.60;5.30;;;;;;;;;;4990346;28;20356;-62
2022/08/23 11:07:00;;;;;;;12.43;6.20;;;;;;;;;;4988738;28;20514;-62
2022/08/23 11:09:26;;;;;;;9.40;6.05;;;;;;;;;;4973130;28;20387;-62
2022/08/23 11:12:21;;;;;;;10.57;6.07;;;;;;;;;;4991780;28;20427;-62
2022/08/23 11:14:56;;;;;;;10.90;6.05;;;;;;;;;;4988731;28;20511;-62
2022/08/23 11:17:42;;;;;;;7.80;5.53;;;;;;;;;;4990106;28;20474;-62
2022/08/23 11:20:11;;;;;;;9.95;5.53;;;;;;;;;;4988531;28;20370;-62
2022/08/23 11:22:55;;;;;;;8.50;5.45;;;;;;;;;;4988571;28;20462;-62
2022/08/23 11:25:20;;;;;;;9.30;5.57;;;;;;;;;;4991160;28;20063;-62
2022/08/23 11:27:46;;;;;;;10.73;5.38;;;;;;;;;;4989877;28;20024;-62
2022/08/23 11:30:45;;;;;;;9.63;5.10;;;;;;;;;;4989910;28;20494;-62
2022/08/23 11:33:19;;;;;;;8.05;5.22;;;;;;;;;;4921302;28;20586;-62
2022/08/23 11:35:52;;;;;;;8.75;5.53;;;;;;;;;;4990832;28;20328;-62
2022/08/23 11:38:46;;;;;;;9.93;5.53;;;;;;;;;;4989586;28;20359;-62
2022/08/23 11:41:17;;;;;;;6.78;5.40;;;;;;;;;;4990465;28;20060;-62
2022/08/23 11:43:46;;;;;;;10.38;4.78;;;;;;;;;;4989533;28;20029;-63
2022/08/23 11:46:13;;;;;;;8.30;5.70;;;;;;;;;;4987937;28;20439;-62
2022/08/23 11:48:49;;;;;;;8.35;5.35;;;;;;;;;;4987845;28;20504;-62
2022/08/23 11:51:24;;;;;;;9.82;5.15;;;;;;;;;;4987717;28;20102;-62
2022/08/23 11:53:52;;;;;;;9.05;5.95;;;;;;;;;;4991312;28;20056;-62
2022/08/23 11:56:47;;;;;;;10.70;6.35;;;;;;;;;;4990330;28;20337;-62
2022/08/23 11:59:30;;;;;;;9.40;6.22;;;;;;;;;;4989086;28;20368;-62
2022/08/23 12:01:56;;;;;;;8.77;4.80;;;;;;;;;;4989035;28;20486;-62
2022/08/23 12:04:34;;;;;;;8.38;5.78;;;;;;;;;;4989344;28;20367;-62
2022/08/23 12:07:06;;;;;;;8.82;5.68;;;;;;;;;;4988880;28;20443;-62
2022/08/23 12:09:31;;;;;;;10.68;6.03;;;;;;;;;;4988902;28;20379;-62
2022/08/23 12:11:58;;;;;;;8.63;5.30;;;;;;;;;;4988952;28;20628;-62
2022/08/23 12:14:29;;;;;;;6.55;5.15;;;;;;;;;;4988865;28;20458;-62
2022/08/23 12:16:59;;;;;;;8.05;5.13;;;;;;;;;;4989027;28;20432;-62
2022/08/23 12:19:33;;;;;;;8.85;5.47;;;;;;;;;;4987412;28;20439;-63
2022/08/23 12:22:06;;;;;;;9.15;6.05;;;;;;;;;;4987221;28;20102;-63
2022/08/23 12:24:41;;;;;;;6.80;5.00;;;;;;;;;;4987247;28;20462;-62
2022/08/23 12:27:35;;;;;;;13.65;5.82;;;;;;;;;;4988729;28;20440;-62
2022/08/23 12:30:05;;;;;;;9.35;6.00;;;;;;;;;;4987013;28;20371;-60
2022/08/23 12:32:57;;;;;;;9.80;6.25;;;;;;;;;;4989166;28;20455;-62
2022/08/23 12:35:56;;;;;;;10.25;6.22;;;;;;;;;;4987378;28;20478;-62
2022/08/23 12:38:30;;;;;;;10.75;6.45;;;;;;;;;;4986931;28;20430;-63
2022/08/23 12:40:56;;;;;;;10.73;6.30;;;;;;;;;;4988247;28;20423;-62
2022/08/23 12:43:25;;;;;;;9.35;6.05;;;;;;;;;;4988535;28;20410;-63
2022/08/23 12:46:01;;;;;;;8.10;5.57;;;;;;;;;;4988065;28;20499;-62
2022/08/23 12:48:32;;;;;;;9.75;6.25;;;;;;;;;;4988319;28;20497;-62
2022/08/23 12:51:10;;;;;;;10.13;6.47;;;;;;;;;;4988121;28;20459;-62
2022/08/23 12:53:39;;;;;;;14.70;8.23;;;;;;;;;;4988795;28;20404;-62
2022/08/23 12:56:14;;;;;;;9.57;6.28;;;;;;;;;;4988362;28;20471;-62
2022/08/23 12:58:45;;;;;;;17.48;8.82;;;;;;;;;;4988443;28;20424;-62
2022/08/23 13:01:22;;;;;;;9.98;6.63;;;;;;;;;;4988080;28;20414;-62
2022/08/23 13:03:51;;;;;;;16.60;7.78;;;;;;;;;;4987909;28;20032;-62
2022/08/23 13:06:23;;;;;;;11.85;6.50;;;;;;;;;;4986540;28;20474;-62
2022/08/23 13:08:53;;;;;;;10.93;6.55;;;;;;;;;;4986565;28;20431;-62
2022/08/23 13:11:20;;;;;;;13.32;7.72;;;;;;;;;;4986582;28;20530;-62
2022/08/23 13:13:47;;;;;;;11.20;7.15;;;;;;;;;;4986381;28;21040;-63
2022/08/23 13:16:42;;;;;;;12.25;6.88;;;;;;;;;;4989074;28;20442;-63
2022/08/23 13:19:26;;;;;;;12.52;6.50;;;;;;;;;;4971128;28;20467;-62
2022/08/23 13:22:09;;;;;;;15.05;7.95;;;;;;;;;;4986218;28;20468;-62
2022/08/23 13:24:38;;;;;;;11.63;7.55;;;;;;;;;;4988338;28;20428;-62
2022/08/23 13:27:20;;;;;;;10.95;7.18;;;;;;;;;;4987988;28;20025;-62
2022/08/23 13:30:18;;;;;;;13.98;8.02;;;;;;;;;;4987696;28;20448;-62
2022/08/23 13:32:47;;;;;;;15.60;8.25;;;;;;;;;;4958314;28;20367;-63
2022/08/23 13:35:31;;;;;;;16.80;8.52;;;;;;;;;;4986109;28;20347;-63
2022/08/23 13:38:09;;;;;;;13.80;9.02;;;;;;;;;;4987557;28;20590;-62
2022/08/23 13:40:55;;;;;;;14.32;7.15;;;;;;;;;;4988812;28;20332;-62
2022/08/23 13:43:47;;;;;;;15.65;7.60;;;;;;;;;;4988100;28;20072;-63
2022/08/23 13:46:18;;;;;;;13.93;8.23;;;;;;;;;;4991060;28;20345;-62
2022/08/23 13:48:53;;;;;;;14.65;7.75;;;;;;;;;;4989902;28;20429;-62
2022/08/23 13:51:37;;;;;;;15.00;8.73;;;;;;;;;;4992921;28;20428;-62
2022/08/23 13:54:05;;;;;;;15.15;8.65;;;;;;;;;;4991421;28;20329;-63
2022/08/23 13:56:36;;;;;;;15.45;9.15;;;;;;;;;;4991337;28;20463;-63
2022/08/23 13:59:18;;;;;;;17.38;8.68;;;;;;;;;;4989693;28;20391;-62
2022/08/23 14:01:44;;;;;;;12.30;8.15;;;;;;;;;;4991212;28;20345;-62
2022/08/23 14:04:09;;;;;;;14.52;8.25;;;;;;;;;;4991371;28;20051;-62
2022/08/23 14:06:34;;;;;;;13.00;8.85;;;;;;;;;;4992868;28;20029;-63
2022/08/23 14:09:00;;;;;;;13.48;7.78;;;;;;;;;;4993604;28;20346;-62
2022/08/23 14:11:25;;;;;;;13.45;8.20;;;;;;;;;;4991976;28;20363;-63
2022/08/23 14:13:51;;;;;;;13.32;8.60;;;;;;;;;;4991198;28;20355;-62
2022/08/23 14:16:24;;;;;;;14.43;8.77;;;;;;;;;;4991022;28;20552;-62
2022/08/23 14:18:50;;;;;;;15.98;8.18;;;;;;;;;;4993361;28;20186;-62
2022/08/23 14:21:15;;;;;;;12.70;8.20;;;;;;;;;;4991020;28;20448;-62
2022/08/23 14:23:41;;;;;;;11.15;7.72;;;;;;;;;;4990833;28;20425;-62
2022/08/23 14:26:06;;;;;;;11.48;8.45;;;;;;;;;;4991066;28;20526;-62
2022/08/23 14:28:32;;;;;;;14.57;8.23;;;;;;;;;;4992583;28;20524;-62
2022/08/23 14:30:57;;;;;;;12.07;7.43;;;;;;;;;;4992337;28;20025;-62
2022/08/23 14:33:23;;;;;;;14.63;8.13;;;;;;;;;;4991673;28;20428;-62
2022/08/23 14:35:48;;;;;;;11.73;7.50;;;;;;;;;;4990863;28;20321;-62
2022/08/23 14:38:13;;;;;;;11.40;8.23;;;;;;;;;;4992778;28;20324;-62
2022/08/23 14:40:40;;;;;;;12.70;8.05;;;;;;;;;;4991566;28;20324;-62
2022/08/23 14:43:09;;;;;;;9.85;7.75;;;;;;;;;;4989079;28;20443;-62
2022/08/23 14:45:34;;;;;;;12.60;7.60;;;;;;;;;;4988788;28;20317;-63
2022/08/23 14:48:00;;;;;;;13.50;8.32;;;;;;;;;;4991381;28;20048;-62
2022/08/23 14:50:25;;;;;;;17.63;8.45;;;;;;;;;;4989742;28;20474;-62
2022/08/23 14:52:50;;;;;;;12.70;7.85;;;;;;;;;;4990403;28;20025;-62
2022/08/23 14:55:16;;;;;;;11.75;8.57;;;;;;;;;;4992024;28;20431;-62
2022/08/23 14:57:41;;;;;;;12.68;8.32;;;;;;;;;;4992231;28;20090;-62
2022/08/23 15:00:11;;;;;;;15.05;8.48;;;;;;;;;;4990779;28;20425;-63
2022/08/23 15:02:37;;;;;;;20.63;10.40;;;;;;;;;;4990473;28;20455;-62
2022/08/23 15:05:02;;;;;;;12.68;8.02;;;;;;;;;;4990631;28;20474;-62
2022/08/23 15:07:28;;;;;;;13.88;9.20;;;;;;;;;;4990367;28;20138;-62
2022/08/23 15:09:53;;;;;;;12.50;8.00;;;;;;;;;;4990546;28;20545;-62